Time;durP1;ratioP1;P1;durP2;ratioP2;P2;SDS_P1;SDS_P2;PMS_P1;PMS_P2;Temp;Humidity;BMP_temperature;BMP_pressure;BME280_temperature;BME280_humidity;BME280_pressure;Samples;Min_cycle;Max_cycle;Signal;HPM_P1;HPM_P2
2021/11/16 00:02:19;;;;;;;20.20;18.10;;;;;;;13.10;66.85;103107.06;4927295;28;102874;-88
2021/11/16 00:04:47;;;;;;;22.38;19.20;;;;;;;13.10;66.81;103109.81;4931031;28;102456;-87
2021/11/16 00:07:17;;;;;;;20.92;18.75;;;;;;;13.10;66.77;103104.34;4934712;28;102464;-87
2021/11/16 00:09:44;;;;;;;19.87;17.77;;;;;;;13.08;66.67;103090.06;4945332;28;102597;-87
2021/11/16 00:12:10;;;;;;;20.58;18.38;;;;;;;13.07;66.85;103091.13;4937271;28;102170;-87
2021/11/16 00:14:37;;;;;;;21.20;18.65;;;;;;;13.08;66.77;103100.97;4930068;28;102980;-88
2021/11/16 00:17:04;;;;;;;21.25;18.90;;;;;;;13.08;66.93;103089.22;4936873;28;102042;-87
2021/11/16 00:19:31;;;;;;;20.58;18.30;;;;;;;13.07;66.76;103088.38;4941669;28;102094;-87
2021/11/16 00:21:59;;;;;;;20.20;18.00;;;;;;;13.08;66.79;103089.22;4933863;28;102348;-87
2021/11/16 00:24:40;;;;;;;22.27;18.37;;;;;;;13.07;66.48;103096.59;4935055;28;103659;-87
2021/11/16 00:27:08;;;;;;;21.30;18.40;;;;;;;13.06;66.93;103092.19;4936500;28;102446;-87
2021/11/16 00:29:35;;;;;;;20.50;18.30;;;;;;;13.05;66.80;103086.94;4932647;28;102130;-87
2021/11/16 00:32:05;;;;;;;22.45;19.08;;;;;;;13.06;67.02;103081.25;4933462;28;102247;-88
2021/11/16 00:34:32;;;;;;;20.60;18.42;;;;;;;13.06;66.83;103086.72;4943038;28;102763;-88
2021/11/16 00:37:01;;;;;;;21.40;17.92;;;;;;;13.05;66.72;103076.84;4933048;28;102336;-88
2021/11/16 00:39:27;;;;;;;22.00;19.67;;;;;;;13.06;66.59;103083.16;4928929;28;102471;-89
2021/11/16 00:41:53;;;;;;;19.63;17.13;;;;;;;13.04;66.66;103086.13;4935374;28;102459;-89
2021/11/16 00:44:20;;;;;;;20.17;17.60;;;;;;;13.05;66.63;103081.47;4933558;28;103990;-88
2021/11/16 00:46:46;;;;;;;19.13;17.13;;;;;;;13.04;66.92;103072.44;4944489;28;102298;-89
2021/11/16 00:49:13;;;;;;;19.90;17.80;;;;;;;13.05;66.73;103065.06;4947093;28;102170;-89
2021/11/16 00:51:41;;;;;;;19.92;17.48;;;;;;;13.04;66.59;103066.97;4935763;28;102579;-90
2021/11/16 00:54:09;;;;;;;20.88;17.67;;;;;;;13.05;66.77;103070.53;4931759;28;103525;-90
2021/11/16 00:56:36;;;;;;;18.77;16.77;;;;;;;13.03;66.67;103070.78;4934986;28;102649;-90
2021/11/16 00:59:02;;;;;;;21.27;17.95;;;;;;;13.04;66.66;103064.25;4934372;28;102220;-90
2021/11/16 01:01:29;;;;;;;19.90;17.85;;;;;;;13.03;66.69;103068.06;4931842;28;102584;-91
2021/11/16 01:03:56;;;;;;;19.10;17.13;;;;;;;13.04;66.69;103061.50;4936074;28;103432;-91
2021/11/16 01:06:22;;;;;;;19.05;17.05;;;;;;;13.04;66.56;103066.16;4930780;28;102166;-90
2021/11/16 01:08:49;;;;;;;20.23;17.65;;;;;;;13.02;66.62;103069.13;4929322;28;102472;-90
2021/11/16 01:11:16;;;;;;;19.50;16.70;;;;;;;13.03;66.59;103070.78;4935469;28;102267;-90
2021/11/16 01:13:43;;;;;;;19.70;17.17;;;;;;;13.02;66.51;103060.91;4935145;28;102881;-90
2021/11/16 01:16:10;;;;;;;19.55;16.52;;;;;;;13.03;66.56;103059.84;4934873;28;102587;-90
2021/11/16 01:18:37;;;;;;;20.88;17.80;;;;;;;13.03;66.54;103062.59;4930412;28;103795;-90
2021/11/16 01:21:04;;;;;;;19.42;17.35;;;;;;;13.03;66.52;103070.78;4933172;28;102516;-90
2021/11/16 01:23:30;;;;;;;207.20;32.65;;;;;;;13.03;66.67;103070.78;4935511;28;102739;-90
2021/11/16 01:25:59;;;;;;;61.05;23.38;;;;;;;13.03;66.59;103069.94;4930937;28;102307;-89
2021/11/16 01:28:29;;;;;;;18.60;16.55;;;;;;;13.03;66.57;103075.41;4931408;28;102293;-90
2021/11/16 01:30:59;;;;;;;18.85;16.42;;;;;;;13.02;66.59;103068.25;4933320;28;102390;-90
2021/11/16 01:33:52;;;;;;;18.23;16.33;;;;;;;13.02;66.71;103060.91;4930531;28;104981;-90
2021/11/16 01:36:19;;;;;;;17.45;15.20;;;;;;;13.03;66.63;103076.25;4924672;28;102653;-89
2021/11/16 01:38:48;;;;;;;18.08;16.05;;;;;;;13.03;66.57;103064.50;4933573;28;102711;-90
2021/11/16 01:41:14;;;;;;;17.65;15.85;;;;;;;13.03;66.50;103076.25;4931135;28;102137;-90
2021/11/16 01:43:43;;;;;;;18.92;16.23;;;;;;;13.03;66.48;103075.41;4930153;28;108130;-87
2021/11/16 01:46:13;;;;;;;17.37;15.57;;;;;;;13.03;66.49;103081.72;4914929;28;102161;-87
2021/11/16 01:48:39;;;;;;;17.88;15.45;;;;;;;13.02;66.53;103077.31;4940065;28;102564;-87
2021/11/16 01:51:06;;;;;;;15.95;13.98;;;;;;;13.02;66.63;103085.53;4939953;28;102367;-88
2021/11/16 01:53:33;;;;;;;18.95;15.55;;;;;;;13.02;66.61;103074.59;4939445;28;102491;-87
2021/11/16 01:56:01;;;;;;;17.25;14.05;;;;;;;13.02;66.60;103085.53;4939390;28;102398;-87
2021/11/16 01:58:28;;;;;;;15.57;13.93;;;;;;;13.02;66.50;103080.06;4939564;28;102191;-87
2021/11/16 02:00:56;;;;;;;15.73;14.07;;;;;;;13.02;66.68;103080.06;4925579;28;102420;-89
2021/11/16 02:03:23;;;;;;;17.52;14.52;;;;;;;13.02;66.44;103080.06;4935538;28;102464;-88
2021/11/16 02:05:52;;;;;;;15.68;14.00;;;;;;;13.02;66.43;103088.25;4937669;28;102199;-89
2021/11/16 02:08:24;;;;;;;17.42;14.68;;;;;;;13.02;66.41;103080.06;4937944;28;102465;-89
2021/11/16 02:10:54;;;;;;;15.60;13.73;;;;;;;13.02;66.48;103085.53;4939670;28;102779;-89
2021/11/16 02:13:20;;;;;;;17.10;14.82;;;;;;;13.02;66.46;103084.66;4935868;28;104245;-87
2021/11/16 02:15:47;;;;;;;15.73;13.77;;;;;;;13.02;66.47;103090.13;4940136;28;102250;-88
2021/11/16 02:18:17;;;;;;;17.35;14.02;;;;;;;13.01;66.41;103086.56;4925049;28;102356;-88
2021/11/16 02:20:48;;;;;;;15.98;14.27;;;;;;;13.01;66.37;103094.75;4938113;28;102186;-89
2021/11/16 02:23:16;;;;;;;15.25;13.65;;;;;;;13.02;66.22;103096.47;4932615;28;102920;-89
2021/11/16 02:25:45;;;;;;;14.88;13.23;;;;;;;13.01;66.48;103089.31;4937364;28;102992;-89
2021/11/16 02:28:15;;;;;;;15.87;14.10;;;;;;;13.02;66.37;103095.59;4922167;28;102182;-87
2021/11/16 02:30:42;;;;;;;15.77;13.30;;;;;;;13.01;66.38;103102.13;4938145;28;102094;-87
2021/11/16 02:33:09;;;;;;;14.43;12.93;;;;;;;13.02;66.34;103099.19;4933986;28;103735;-87
2021/11/16 02:35:35;;;;;;;14.27;12.43;;;;;;;13.03;66.34;103097.28;4935391;28;103198;-87
2021/11/16 02:38:03;;;;;;;14.50;12.98;;;;;;;13.02;66.34;103096.47;4934185;28;102549;-88
2021/11/16 02:40:30;;;;;;;14.73;12.48;;;;;;;13.02;66.38;103096.47;4937936;28;102617;-87
2021/11/16 02:42:57;;;;;;;13.70;12.30;;;;;;;13.03;66.24;103105.50;4929902;28;104662;-87
2021/11/16 02:45:24;;;;;;;15.27;12.98;;;;;;;13.03;66.24;103105.50;4936281;28;102256;-87
2021/11/16 02:47:51;;;;;;;14.75;13.15;;;;;;;13.02;66.20;103096.47;4929164;28;102604;-87
2021/11/16 02:50:20;;;;;;;14.05;12.60;;;;;;;13.02;66.32;103099.19;4932014;28;102304;-87
2021/11/16 02:52:48;;;;;;;14.00;12.15;;;;;;;13.02;66.24;103101.94;4937763;28;103461;-87
2021/11/16 02:55:16;;;;;;;13.70;12.10;;;;;;;13.02;66.21;103104.66;4932452;28;102152;-87
2021/11/16 02:57:44;;;;;;;14.07;12.50;;;;;;;13.03;66.21;103106.31;4933273;28;102645;-87
2021/11/16 03:00:13;;;;;;;15.27;12.55;;;;;;;13.02;66.38;103101.94;4938368;28;102561;-88
2021/11/16 03:02:41;;;;;;;12.63;11.32;;;;;;;13.02;66.39;103101.94;4936540;28;103320;-87
2021/11/16 03:05:08;;;;;;;13.55;12.10;;;;;;;13.03;66.45;103100.84;4938007;28;103148;-87
2021/11/16 03:07:40;;;;;;;13.38;11.27;;;;;;;13.03;66.23;103095.38;4937282;28;102776;-87
2021/11/16 03:10:08;;;;;;;13.50;12.13;;;;;;;13.03;66.15;103092.66;4936911;28;102257;-87
2021/11/16 03:12:36;;;;;;;14.40;11.77;;;;;;;13.03;66.28;103106.31;4937878;28;102878;-87
2021/11/16 03:15:03;;;;;;;12.98;11.68;;;;;;;13.03;66.29;103091.81;4936139;28;102518;-88
2021/11/16 03:17:31;;;;;;;13.25;11.82;;;;;;;13.02;66.26;103085.53;4937488;28;102769;-88
2021/11/16 03:19:57;;;;;;;13.20;11.27;;;;;;;13.03;66.17;103083.63;4937399;28;102379;-89
2021/11/16 03:22:31;;;;;;;12.40;10.80;;;;;;;13.04;66.33;103085.28;4933735;28;102592;-89
2021/11/16 03:24:59;;;;;;;12.98;11.18;;;;;;;13.03;66.25;103086.34;4940138;28;102487;-89
2021/11/16 03:27:34;;;;;;;12.55;10.85;;;;;;;13.03;66.19;103086.34;4936969;28;102183;-88
2021/11/16 03:30:03;;;;;;;11.70;10.55;;;;;;;13.03;66.20;103089.91;4936225;28;102439;-89
2021/11/16 03:32:36;;;;;;;11.77;10.68;;;;;;;13.03;66.33;103087.19;4938985;28;102739;-88
2021/11/16 03:35:05;;;;;;;11.98;10.68;;;;;;;13.04;66.31;103099.78;4930056;28;102140;-87
2021/11/16 03:37:37;;;;;;;11.50;10.40;;;;;;;13.03;66.24;103097.28;4930080;28;102436;-87
2021/11/16 03:40:05;;;;;;;10.95;9.80;;;;;;;13.03;66.28;103106.31;4920783;28;102429;-87
2021/11/16 03:42:33;;;;;;;11.33;10.10;;;;;;;13.03;66.15;103097.28;4918010;28;103950;-88
2021/11/16 03:44:59;;;;;;;10.73;9.63;;;;;;;13.03;66.19;103109.06;4918357;28;102423;-88
2021/11/16 03:47:27;;;;;;;11.70;10.50;;;;;;;13.03;66.13;103098.13;4914770;28;102576;-87
2021/11/16 03:49:56;;;;;;;10.10;9.00;;;;;;;13.04;66.35;103096.22;4913261;28;102323;-88
2021/11/16 03:52:25;;;;;;;11.30;9.93;;;;;;;13.02;66.18;103090.13;4916981;28;102967;-88
2021/11/16 03:54:52;;;;;;;10.73;9.70;;;;;;;13.02;66.20;103081.94;4913202;28;102373;-88
2021/11/16 03:57:19;;;;;;;11.77;9.80;;;;;;;13.03;66.23;103097.28;4916607;28;102569;-88
2021/11/16 03:59:46;;;;;;;10.43;9.32;;;;;;;13.02;66.29;103096.47;4918999;28;102211;-88
2021/11/16 04:02:12;;;;;;;10.23;9.23;;;;;;;13.02;66.47;103098.34;4914482;28;102835;-88
2021/11/16 04:04:42;;;;;;;10.32;9.20;;;;;;;13.02;66.36;103091.00;4918793;28;102209;-88
2021/11/16 04:07:08;;;;;;;10.55;9.45;;;;;;;13.01;66.30;103094.75;4917485;28;102373;-88
2021/11/16 04:09:36;;;;;;;10.45;9.20;;;;;;;13.01;65.99;103089.31;4902339;28;103255;-88
2021/11/16 04:12:03;;;;;;;10.70;9.60;;;;;;;13.01;66.35;103089.31;4907965;28;104131;-88
2021/11/16 04:14:30;;;;;;;10.48;9.38;;;;;;;13.01;66.58;103094.75;4919613;28;102363;-88
2021/11/16 04:16:57;;;;;;;10.80;9.27;;;;;;;13.00;66.31;103093.09;4915104;28;102712;-88
2021/11/16 04:19:24;;;;;;;9.80;8.80;;;;;;;13.00;66.37;103093.09;4918100;28;102673;-89
2021/11/16 04:21:51;;;;;;;9.23;8.18;;;;;;;13.01;66.31;103094.75;4915394;28;104419;-89
2021/11/16 04:24:18;;;;;;;10.88;9.00;;;;;;;12.99;66.26;103100.47;4915444;28;102271;-88
2021/11/16 04:26:44;;;;;;;9.98;8.55;;;;;;;12.99;66.07;103102.38;4914844;28;102373;-88
2021/11/16 04:29:11;;;;;;;10.35;9.02;;;;;;;12.98;66.09;103104.28;4917738;28;102349;-88
2021/11/16 04:31:37;;;;;;;10.70;8.77;;;;;;;12.99;66.22;103105.13;4916292;28;103722;-88
2021/11/16 04:34:05;;;;;;;9.68;8.75;;;;;;;12.99;66.27;103113.31;4895585;28;102292;-89
2021/11/16 04:36:33;;;;;;;9.35;8.35;;;;;;;12.99;66.13;103103.22;4910424;28;102223;-89
2021/11/16 04:39:01;;;;;;;11.23;8.45;;;;;;;12.98;66.22;103111.63;4912959;28;103062;-88
2021/11/16 04:41:29;;;;;;;9.45;8.45;;;;;;;12.99;66.00;103113.31;4908001;28;103250;-89
2021/11/16 04:43:57;;;;;;;10.57;8.63;;;;;;;12.98;66.07;103106.16;4914797;28;102176;-89
2021/11/16 04:46:25;;;;;;;9.48;8.05;;;;;;;12.98;66.09;103122.56;4909861;28;102586;-88
2021/11/16 04:48:57;;;;;;;9.73;7.83;;;;;;;12.97;65.80;103127.19;4910504;28;102537;-88
2021/11/16 05:04:41;;;;;;;10.50;8.07;;;;;;;12.98;66.09;103147.16;4908577;28;102322;-88
2021/11/16 05:07:10;;;;;;;8.98;7.95;;;;;;;12.98;66.04;103149.88;4914015;28;102261;-89
2021/11/16 05:09:38;;;;;;;;;;;;;;;12.98;65.89;103155.34;4916832;28;102319;-89
2021/11/16 05:12:05;;;;;;;10.38;8.10;;;;;;;12.98;66.27;103155.34;4912931;28;103998;-89
2021/11/16 05:14:32;;;;;;;9.55;8.07;;;;;;;12.97;66.09;103159.16;4916347;28;102477;-89
2021/11/16 05:16:58;;;;;;;7.97;7.15;;;;;;;12.99;66.22;103154.31;4916368;28;102632;-89
2021/11/16 05:19:26;;;;;;;8.18;7.38;;;;;;;12.98;66.05;103150.75;4917125;28;102542;-89
2021/11/16 05:21:52;;;;;;;8.02;7.22;;;;;;;12.97;66.10;103148.22;4917392;28;102707;-89
2021/11/16 05:24:23;;;;;;;8.30;7.47;;;;;;;12.97;66.18;103153.69;4924120;28;102201;-89
2021/11/16 05:26:50;;;;;;;8.05;7.25;;;;;;;12.98;66.07;103156.22;4916233;28;102267;-94
2021/11/16 05:29:17;;;;;;;9.80;7.30;;;;;;;12.98;66.11;103155.34;4913103;28;102249;-90
2021/11/16 05:31:43;;;;;;;7.88;6.90;;;;;;;12.98;65.99;103158.09;4914071;28;102383;-91
2021/11/16 05:34:10;;;;;;;7.88;7.07;;;;;;;12.98;65.82;103174.50;4925755;28;102482;-94
2021/11/16 05:36:37;;;;;;;7.68;6.63;;;;;;;12.98;66.08;103167.16;4915584;28;102684;-92
2021/11/16 05:39:05;;;;;;;7.95;7.03;;;;;;;12.97;66.13;103164.63;4920037;28;102597;-91
2021/11/16 05:41:32;;;;;;;7.72;6.78;;;;;;;12.99;65.93;103167.97;4932089;28;102750;-90
2021/11/16 05:43:59;;;;;;;8.68;6.93;;;;;;;12.98;65.85;103178.09;4934805;28;102368;-91
2021/11/16 05:46:26;;;;;;;8.00;7.20;;;;;;;12.98;66.10;103183.56;4929132;28;102146;-92
2021/11/16 05:48:55;;;;;;;7.22;6.50;;;;;;;12.97;66.01;103173.66;4933504;28;102152;-90
2021/11/16 05:51:24;;;;;;;7.78;6.72;;;;;;;12.98;65.95;103177.22;4929540;28;102658;-90
2021/11/16 05:53:56;;;;;;;7.43;6.72;;;;;;;12.98;66.03;103178.09;4933625;28;102941;-91
2021/11/16 05:56:23;;;;;;;7.18;6.47;;;;;;;12.98;66.13;103180.81;4912575;28;102273;-91
2021/11/16 05:58:53;;;;;;;6.68;6.00;;;;;;;12.98;65.93;103177.22;4936206;28;102342;-90
2021/11/16 06:01:22;;;;;;;7.32;6.63;;;;;;;12.99;65.96;103173.44;4930062;28;103866;-88
2021/11/16 06:03:52;;;;;;;6.95;6.15;;;;;;;12.98;65.87;103166.28;4931091;28;103855;-89
2021/11/16 06:06:19;;;;;;;7.65;6.55;;;;;;;12.99;65.77;103184.38;4923305;28;103060;-90
2021/11/16 06:08:48;;;;;;;7.65;6.18;;;;;;;12.98;66.00;103189.03;4931371;28;102612;-90
2021/11/16 06:11:17;;;;;;;7.20;6.40;;;;;;;12.99;65.88;103184.38;4930544;28;104445;-90
2021/11/16 06:13:44;;;;;;;7.18;6.18;;;;;;;12.99;65.80;103193.41;4934901;28;102079;-89
2021/11/16 06:16:10;;;;;;;8.18;7.18;;;;;;;13.00;65.88;103191.50;4932917;28;102638;-90
2021/11/16 06:18:39;;;;;;;7.70;6.88;;;;;;;13.00;65.74;103196.97;4943752;28;102207;-90
2021/11/16 06:21:07;;;;;;;6.88;6.05;;;;;;;13.01;65.93;103192.34;4933065;28;102715;-92
2021/11/16 06:23:35;;;;;;;6.78;6.07;;;;;;;13.01;65.99;103197.81;4928248;28;102848;-91
2021/11/16 06:26:01;;;;;;;7.43;6.47;;;;;;;13.01;65.76;103195.91;4931556;28;102343;-92
2021/11/16 06:28:28;;;;;;;8.40;6.25;;;;;;;13.00;65.82;103186.03;4927194;28;102535;-93
2021/11/16 06:30:54;;;;;;;8.13;5.90;;;;;;;13.00;65.94;103186.03;4934173;28;103859;-93
2021/11/16 06:33:21;;;;;;;7.97;6.65;;;;;;;13.01;65.91;103186.88;4931920;28;102073;-90
2021/11/16 06:35:49;;;;;;;7.05;6.28;;;;;;;13.02;65.80;103194.88;4931737;28;102210;-93
2021/11/16 06:38:16;;;;;;;7.40;5.63;;;;;;;13.02;65.87;103192.13;4929791;28;102315;-93
2021/11/16 06:40:47;;;;;;;7.32;6.60;;;;;;;13.02;65.88;103192.13;4913977;28;102718;-91
2021/11/16 06:43:20;;;;;;;6.40;5.80;;;;;;;13.02;66.09;103189.41;4917233;28;102181;-93
2021/11/16 06:45:50;;;;;;;7.88;6.38;;;;;;;13.03;65.91;103190.22;4906901;28;106566;-91
2021/11/16 06:48:16;;;;;;;7.97;6.18;;;;;;;13.02;65.85;103194.88;4912992;28;102206;-86
2021/11/16 06:50:43;;;;;;;7.10;6.40;;;;;;;13.03;65.93;103191.06;4913435;28;103867;-86
2021/11/16 06:53:11;;;;;;;7.13;5.55;;;;;;;13.03;66.01;103192.97;4909493;28;102180;-87
2021/11/16 06:55:37;;;;;;;8.05;6.25;;;;;;;13.03;65.77;103187.50;4911255;28;102800;-86
2021/11/16 06:58:04;;;;;;;7.40;5.95;;;;;;;13.03;65.88;103191.06;4916030;28;102212;-86
2021/11/16 07:00:33;;;;;;;6.47;5.47;;;;;;;13.02;65.99;103180.34;4916759;28;103949;-88
2021/11/16 07:03:03;;;;;;;8.27;5.95;;;;;;;13.02;65.86;103183.06;4893973;28;103240;-88
2021/11/16 07:05:29;;;;;;;7.38;5.20;;;;;;;13.02;66.00;103189.41;4920212;28;102179;-89
2021/11/16 07:07:57;;;;;;;6.60;5.68;;;;;;;13.03;65.87;103184.75;4915617;28;102220;-90
2021/11/16 07:10:28;;;;;;;6.53;5.72;;;;;;;13.02;65.92;103197.59;4912192;28;103085;-94
2021/11/16 07:13:04;;;;;;;6.70;5.65;;;;;;;13.03;66.00;103184.75;4928934;28;102205;-91
2021/11/16 07:15:32;;;;;;;7.00;5.70;;;;;;;13.02;65.85;103194.88;4932145;28;101928;-90
2021/11/16 07:18:02;;;;;;;6.05;5.45;;;;;;;13.02;65.90;103189.41;4918744;28;102439;-90
2021/11/16 07:20:30;;;;;;;5.70;5.10;;;;;;;13.02;65.82;103185.81;4914347;28;102782;-91
2021/11/16 07:22:57;;;;;;;6.65;5.25;;;;;;;13.02;65.78;103186.66;4918637;28;102102;-93
2021/11/16 07:25:26;;;;;;;6.03;5.43;;;;;;;13.01;65.91;103187.72;4911317;28;102578;-89
2021/11/16 07:27:54;;;;;;;;;;;;;;;13.02;65.70;103183.06;4918638;28;102579;-90
2021/11/16 07:30:24;;;;;;;8.57;5.77;;;;;;;13.02;65.83;103189.41;4912833;28;104868;-90
2021/11/16 07:32:53;;;;;;;8.30;5.75;;;;;;;13.01;65.91;103179.50;4917951;28;102569;-90
2021/11/16 07:35:25;;;;;;;7.47;5.68;;;;;;;13.01;65.71;103171.31;4913037;28;102523;-89
2021/11/16 07:37:55;;;;;;;6.53;5.70;;;;;;;13.02;65.68;103178.47;4926024;28;102592;-91
2021/11/16 07:40:22;;;;;;;7.07;5.45;;;;;;;13.02;65.77;103170.25;4891761;28;102607;-90
2021/11/16 07:42:52;;;;;;;6.32;5.35;;;;;;;13.02;65.77;103164.78;4916767;28;102357;-89
2021/11/16 07:45:20;;;;;;;6.88;6.18;;;;;;;13.02;65.70;103161.19;4909305;28;102536;-90
2021/11/16 07:47:51;;;;;;;9.55;5.82;;;;;;;13.02;65.80;103163.94;4910389;28;102213;-90
2021/11/16 07:50:34;;;;;;;8.45;5.65;;;;;;;13.02;65.91;103162.06;4910801;28;102579;-90
2021/11/16 07:53:18;;;;;;;6.47;5.57;;;;;;;13.02;65.61;103161.19;4916169;28;102552;-90
2021/11/16 07:55:54;;;;;;;6.57;5.45;;;;;;;13.01;65.77;103165.84;4914979;28;102518;-90
2021/11/16 07:58:25;;;;;;;5.65;4.88;;;;;;;13.02;65.57;103162.06;4902205;28;103382;-89
2021/11/16 08:00:53;;;;;;;8.00;5.80;;;;;;;13.03;65.79;103173.81;4903794;28;102492;-90
2021/11/16 08:03:23;;;;;;;7.65;6.07;;;;;;;13.02;65.75;103173.00;4922803;28;102285;-89
2021/11/16 08:06:03;;;;;;;7.13;5.95;;;;;;;13.02;65.71;103167.53;4917007;28;102262;-90
2021/11/16 08:11:29;;;;;;;6.90;5.78;;;;;;;13.01;65.77;103176.78;4917431;28;103878;-89
2021/11/16 08:13:59;;;;;;;;;;;;;;;13.02;65.82;103185.81;4906329;28;102169;-89
2021/11/16 08:16:27;;;;;;;7.53;6.18;;;;;;;13.02;65.81;103192.13;4916416;28;102181;-89
2021/11/16 08:18:57;;;;;;;7.88;6.00;;;;;;;13.02;65.81;103194.00;4917086;28;102239;-90
2021/11/16 08:21:24;;;;;;;8.90;6.43;;;;;;;13.02;65.79;103183.94;4917193;28;103988;-89
2021/11/16 08:23:57;;;;;;;7.43;6.47;;;;;;;13.02;65.77;103181.19;4917345;28;102426;-90
2021/11/16 08:26:30;;;;;;;9.88;5.70;;;;;;;13.01;65.83;103187.72;4917312;28;102096;-90
2021/11/16 08:28:58;;;;;;;6.53;5.80;;;;;;;13.02;65.60;103183.94;4911052;28;102173;-90
2021/11/16 08:31:32;;;;;;;8.43;6.10;;;;;;;13.02;65.69;103172.13;4915120;28;102730;-89
2021/11/16 08:33:59;;;;;;;8.07;6.00;;;;;;;13.03;65.76;103177.41;4897271;28;102292;-89
2021/11/16 08:36:28;;;;;;;5.95;5.35;;;;;;;13.02;65.85;103173.00;4914304;28;102195;-89
2021/11/16 08:38:56;;;;;;;8.50;5.78;;;;;;;13.02;65.88;103167.53;4917934;28;102144;-90
2021/11/16 08:41:30;;;;;;;7.07;5.95;;;;;;;13.01;65.66;103171.31;4907533;28;102781;-90
2021/11/16 08:44:16;;;;;;;8.27;5.72;;;;;;;13.02;65.45;103162.06;4912133;28;102291;-90
2021/11/16 08:46:45;;;;;;;7.15;6.13;;;;;;;13.02;65.66;103166.66;4912510;28;102467;-90
2021/11/16 08:49:30;;;;;;;7.38;5.90;;;;;;;13.02;65.71;103161.19;4921718;28;102465;-91
2021/11/16 08:52:01;;;;;;;6.85;5.70;;;;;;;13.02;65.78;103155.72;4914907;28;102716;-91
2021/11/16 08:54:36;;;;;;;8.55;6.35;;;;;;;13.02;65.64;103162.06;4916973;28;102295;-91
2021/11/16 08:57:16;;;;;;;7.50;5.93;;;;;;;13.02;65.64;103150.28;4911100;28;102482;-91
2021/11/16 08:59:44;;;;;;;7.18;5.72;;;;;;;13.03;65.69;103147.31;4916597;28;102618;-91
2021/11/16 09:02:11;;;;;;;6.55;5.22;;;;;;;13.02;65.67;103151.13;4914389;28;103213;-91
2021/11/16 09:04:40;;;;;;;6.05;5.28;;;;;;;13.03;65.75;103152.78;4914728;28;102315;-91
2021/11/16 09:07:24;;;;;;;6.80;5.63;;;;;;;13.03;65.65;103149.22;4903496;28;102205;-90
2021/11/16 09:10:03;;;;;;;7.65;5.80;;;;;;;13.02;65.72;103142.94;4913116;28;103113;-92
2021/11/16 09:12:34;;;;;;;7.28;5.90;;;;;;;13.02;65.77;103140.19;4915731;28;102778;-91
2021/11/16 09:15:03;;;;;;;7.68;5.70;;;;;;;13.04;65.61;103134.47;4902916;28;102595;-91
2021/11/16 09:17:30;;;;;;;7.80;6.22;;;;;;;13.03;65.77;103139.13;4909853;28;102139;-91
2021/11/16 09:20:12;;;;;;;6.40;5.65;;;;;;;13.03;65.77;103136.38;4913898;28;102774;-90
2021/11/16 09:22:41;;;;;;;6.40;5.63;;;;;;;13.04;65.62;103129.03;4904797;28;103997;-91
2021/11/16 09:25:20;;;;;;;9.70;6.78;;;;;;;13.03;65.80;103125.44;4911007;28;102464;-90
2021/11/16 09:27:48;;;;;;;7.30;5.75;;;;;;;13.03;65.61;103125.44;4911658;28;102503;-92
2021/11/16 09:30:16;;;;;;;8.43;5.40;;;;;;;13.03;65.88;103124.63;4920847;28;102314;-91
2021/11/16 09:32:58;;;;;;;7.00;6.10;;;;;;;13.03;65.62;103125.44;4913050;28;104095;-90
2021/11/16 09:35:40;;;;;;;7.55;6.03;;;;;;;13.03;65.65;103120.00;4912716;28;102512;-92
2021/11/16 09:38:07;;;;;;;6.60;5.90;;;;;;;13.03;65.63;103117.25;4897411;28;102198;-90
2021/11/16 09:40:33;;;;;;;5.68;5.07;;;;;;;13.03;65.66;103114.53;4916266;28;102248;-91
2021/11/16 09:43:02;;;;;;;6.25;5.32;;;;;;;13.03;65.68;103119.16;4918245;28;102782;-91
2021/11/16 09:45:31;;;;;;;7.70;5.57;;;;;;;13.03;65.41;103121.88;4921392;28;102566;-90
2021/11/16 09:47:57;;;;;;;7.07;5.88;;;;;;;13.03;65.75;103119.16;4913292;28;102875;-92
2021/11/16 09:50:25;;;;;;;8.38;6.10;;;;;;;13.03;65.88;103114.53;4911017;28;102129;-90
2021/11/16 09:52:54;;;;;;;7.57;5.20;;;;;;;13.02;65.76;103104.66;4909940;28;102645;-91
2021/11/16 09:55:27;;;;;;;14.88;6.22;;;;;;;13.03;65.66;103103.59;4912839;28;102214;-90
2021/11/16 09:57:56;;;;;;;14.75;6.13;;;;;;;13.03;65.78;103100.84;4913593;28;102295;-90
2021/11/16 10:00:25;;;;;;;;;;;;;;;13.02;65.76;103091.00;4907018;28;102272;-90
2021/11/16 10:03:03;;;;;;;10.02;6.50;;;;;;;13.02;65.61;103085.53;4912430;28;102579;-90
2021/11/16 10:05:38;;;;;;;9.20;6.28;;;;;;;13.03;65.68;103103.59;4909887;28;102369;-92
2021/11/16 10:08:06;;;;;;;12.48;5.70;;;;;;;13.02;65.73;103081.94;4912393;28;102722;-94
2021/11/16 10:10:34;;;;;;;12.77;5.88;;;;;;;13.02;65.66;103092.88;4896776;28;103353;-91
2021/11/16 10:13:03;;;;;;;6.88;5.22;;;;;;;13.02;65.78;103091.00;4909304;28;102730;-90
2021/11/16 10:15:30;;;;;;;;;;;;;;;13.02;65.68;103079.19;4913016;28;102229;-91
2021/11/16 10:18:00;;;;;;;11.05;5.85;;;;;;;13.02;65.58;103081.94;4892406;28;102696;-91
2021/11/16 10:20:29;;;;;;;8.07;5.85;;;;;;;13.02;65.61;103085.53;4920569;28;102494;-92
2021/11/16 10:22:58;;;;;;;8.48;6.15;;;;;;;13.02;65.65;103091.00;4910005;28;102725;-92
2021/11/16 10:25:27;;;;;;;7.25;5.63;;;;;;;13.03;65.69;103081.72;4917237;28;104776;-93
2021/11/16 10:27:55;;;;;;;10.90;5.50;;;;;;;13.02;65.90;103074.59;4903046;28;102303;-92
2021/11/16 10:30:24;;;;;;;6.72;5.60;;;;;;;13.01;65.66;103064.69;4920720;28;102220;-92
2021/11/16 10:33:09;;;;;;;7.47;5.57;;;;;;;13.00;65.56;103071.25;4917295;28;103907;-91
2021/11/16 10:35:38;;;;;;;7.65;5.15;;;;;;;13.01;65.58;103055.66;4908478;28;102575;-93
2021/11/16 10:38:07;;;;;;;9.75;6.20;;;;;;;13.00;65.45;103057.56;4913083;28;102305;-91
2021/11/16 10:40:35;;;;;;;10.73;5.20;;;;;;;13.02;65.68;103052.72;4912387;28;102289;-90
2021/11/16 10:43:03;;;;;;;7.82;5.63;;;;;;;13.02;65.54;103052.72;4924444;28;102898;-93
2021/11/16 10:45:33;;;;;;;9.57;5.38;;;;;;;13.02;65.77;103054.59;4912265;28;102381;-91
2021/11/16 10:48:02;;;;;;;7.78;5.13;;;;;;;13.00;65.70;103041.16;4910806;28;102728;-91
2021/11/16 10:50:31;;;;;;;9.13;5.40;;;;;;;13.01;65.63;103044.72;4914889;28;102673;-93
2021/11/16 10:53:01;;;;;;;7.72;5.53;;;;;;;13.01;65.69;103042.81;4919656;28;102780;-92
2021/11/16 10:55:45;;;;;;;8.88;5.53;;;;;;;13.01;65.57;103039.25;4913607;28;102018;-90
2021/11/16 10:58:13;;;;;;;7.63;5.35;;;;;;;13.02;65.50;103043.66;4918256;28;102840;-90
2021/11/16 11:00:46;;;;;;;7.40;4.97;;;;;;;13.02;65.55;103040.94;4924197;28;102228;-92
2021/11/16 11:03:26;;;;;;;6.80;5.75;;;;;;;13.01;65.67;103029.16;4912695;28;103155;-93
2021/11/16 11:05:57;;;;;;;7.15;5.20;;;;;;;13.02;65.54;103030.84;4919974;28;102280;-88
2021/11/16 11:08:37;;;;;;;12.43;6.05;;;;;;;13.01;65.80;103023.69;4919746;28;102420;-88
2021/11/16 11:11:09;;;;;;;6.68;4.57;;;;;;;13.02;65.45;103019.91;4912911;28;102367;-92
2021/11/16 11:13:42;;;;;;;7.40;5.47;;;;;;;13.01;65.54;103018.22;4914723;28;103913;-95
2021/11/16 11:16:17;;;;;;;8.25;5.63;;;;;;;13.02;65.56;103013.59;4913612;28;102476;-91
2021/11/16 11:18:48;;;;;;;9.02;5.10;;;;;;;13.02;65.58;103013.59;4888611;28;102348;-90
2021/11/16 11:21:38;;;;;;;6.22;5.13;;;;;;;13.02;65.57;103017.19;4918067;28;102848;-92
2021/11/16 11:24:19;;;;;;;6.50;5.07;;;;;;;13.01;65.67;103015.50;4912048;28;106391;-93
2021/11/16 11:26:53;;;;;;;6.28;4.47;;;;;;;13.02;65.76;103011.72;4909591;28;102082;-93
2021/11/16 11:29:37;;;;;;;6.10;4.57;;;;;;;13.03;65.89;103004.34;4913820;28;102369;-92
2021/11/16 11:32:08;;;;;;;6.70;4.80;;;;;;;13.02;65.70;103008.13;4915317;28;102134;-93
2021/11/16 11:34:40;;;;;;;7.10;5.10;;;;;;;13.01;65.56;103007.28;4912475;28;103995;-95
2021/11/16 11:37:12;;;;;;;5.47;4.65;;;;;;;13.02;65.64;103006.25;4919232;28;102256;-92
2021/11/16 11:39:39;;;;;;;5.93;4.55;;;;;;;13.02;65.67;103003.53;4925582;28;102208;-93